Time;durP1;ratioP1;P1;durP2;ratioP2;P2;SDS_P1;SDS_P2;PMS_P1;PMS_P2;Temp;Humidity;BMP_temperature;BMP_pressure;BME280_temperature;BME280_humidity;BME280_pressure;Samples;Min_cycle;Max_cycle;Signal;HPM_P1;HPM_P2
2023/11/14 00:00:12;;;;;;;14.63;8.35;;;;;;;8.41;100.00;99535.16;6167979;28;20085;-76
2023/11/14 00:03:13;;;;;;;18.50;10.20;;;;;;;8.41;100.00;99528.19;6169965;28;20085;-76
2023/11/14 00:06:14;;;;;;;16.20;10.48;;;;;;;8.41;100.00;99527.38;6163546;28;20054;-73
2023/11/14 00:09:15;;;;;;;14.50;9.13;;;;;;;8.45;100.00;99521.88;6164710;28;20054;-73
2023/11/14 00:12:17;;;;;;;17.88;10.15;;;;;;;8.57;100.00;99514.28;6169368;28;20054;-73
2023/11/14 00:15:21;;;;;;;17.60;10.90;;;;;;;8.56;100.00;99529.03;6163134;28;20533;-77
2023/11/14 00:18:22;;;;;;;15.55;9.77;;;;;;;8.64;100.00;99532.00;6164647;28;20130;-73
2023/11/14 00:21:23;;;;;;;17.75;9.32;;;;;;;8.55;100.00;99536.94;6169708;28;20042;-78
2023/11/14 00:24:28;;;;;;;15.55;10.02;;;;;;;8.56;100.00;99541.19;6165982;28;20054;-74
2023/11/14 00:27:29;;;;;;;21.33;8.65;;;;;;;8.52;100.00;99537.94;6170461;28;20158;-74
2023/11/14 00:30:30;;;;;;;13.73;8.52;;;;;;;8.55;100.00;99548.16;6168483;28;20057;-75
2023/11/14 00:33:31;;;;;;;14.68;9.35;;;;;;;8.61;100.00;99555.59;6171280;28;20678;-74
2023/11/14 00:36:32;;;;;;;18.58;10.25;;;;;;;8.62;100.00;99544.25;6162086;28;20057;-78
2023/11/14 00:39:36;;;;;;;18.35;8.35;;;;;;;8.62;100.00;99544.25;6167070;28;20042;-79
2023/11/14 00:42:37;;;;;;;15.88;8.10;;;;;;;8.60;100.00;99538.31;6159512;28;20129;-75
2023/11/14 00:45:38;;;;;;;18.10;9.63;;;;;;;8.66;100.00;99522.31;6161994;28;20427;-74
2023/11/14 00:48:39;;;;;;;13.40;8.57;;;;;;;8.73;100.00;99520.22;6167673;28;20059;-74
2023/11/14 00:51:40;;;;;;;15.90;9.60;;;;;;;8.58;100.00;99513.31;6162079;28;20047;-75
2023/11/14 00:54:41;;;;;;;14.45;8.60;;;;;;;8.75;100.00;99509.69;6165394;28;20055;-74
2023/11/14 00:57:42;;;;;;;9.85;6.40;;;;;;;8.74;100.00;99515.84;6153915;28;20058;-78
2023/11/14 01:00:43;;;;;;;17.88;9.55;;;;;;;8.80;100.00;99503.28;6148194;28;20446;-74
2023/11/14 01:03:44;;;;;;;16.45;9.13;;;;;;;8.86;100.00;99489.06;6160281;28;20294;-75
2023/11/14 01:06:45;;;;;;;13.70;8.50;;;;;;;8.82;100.00;99485.81;6197125;28;20055;-74
2023/11/14 01:09:46;;;;;;;11.45;7.90;;;;;;;8.78;100.00;99478.28;6159636;28;20047;-74
2023/11/14 01:12:47;;;;;;;13.75;8.18;;;;;;;8.91;100.00;99481.78;6158418;28;20494;-78
2023/11/14 01:15:50;;;;;;;13.43;8.60;;;;;;;8.87;100.00;99481.16;6167098;28;20061;-74
2023/11/14 01:18:51;;;;;;;16.10;9.40;;;;;;;9.01;100.00;99474.22;6169411;28;20061;-78
2023/11/14 01:21:55;;;;;;;15.52;8.57;;;;;;;9.01;100.00;99469.84;6164835;28;20055;-78
2023/11/14 01:24:55;;;;;;;16.08;8.57;;;;;;;8.94;100.00;99452.16;6165700;28;20058;-78
2023/11/14 01:27:57;;;;;;;14.23;8.45;;;;;;;8.99;100.00;99447.47;6152029;28;20559;-78
2023/11/14 01:30:58;;;;;;;15.57;8.40;;;;;;;9.04;100.00;99433.25;6170037;28;20097;-78
2023/11/14 01:33:59;;;;;;;19.50;9.15;;;;;;;9.11;100.00;99446.69;6164239;28;20054;-74
2023/11/14 01:37:00;;;;;;;11.95;6.80;;;;;;;8.96;100.00;99445.09;6166816;28;20062;-74
2023/11/14 01:40:02;;;;;;;14.20;8.57;;;;;;;8.96;100.00;99435.50;6169733;28;20055;-74
2023/11/14 01:43:06;;;;;;;14.85;8.73;;;;;;;8.94;100.00;99434.75;6169947;28;20478;-74
2023/11/14 01:46:07;;;;;;;16.95;9.52;;;;;;;9.05;100.00;99439.28;6166072;28;20133;-74
2023/11/14 01:49:08;;;;;;;14.13;7.90;;;;;;;8.98;100.00;99425.81;6176103;28;20404;-77
2023/11/14 01:52:10;;;;;;;16.15;8.77;;;;;;;9.00;100.00;99420.53;6194766;28;20050;-74
2023/11/14 01:55:12;;;;;;;;;;;;;;;8.94;100.00;99429.56;6195559;28;20057;-77
2023/11/14 01:58:15;;;;;;;13.40;7.68;;;;;;;9.12;100.00;99435.34;6194014;28;19928;-78
2023/11/14 02:01:22;;;;;;;12.70;7.55;;;;;;;9.06;100.00;99435.75;6193798;28;20038;-78
2023/11/14 02:04:27;;;;;;;15.57;8.68;;;;;;;9.07;100.00;99435.63;6192976;28;20051;-77
2023/11/14 02:07:31;;;;;;;21.67;9.10;;;;;;;9.09;100.00;99430.34;6169274;28;20058;-78
2023/11/14 02:10:33;;;;;;;24.55;9.32;;;;;;;9.16;100.00;99416.00;6187443;28;20061;-77
2023/11/14 02:13:34;;;;;;;12.77;7.43;;;;;;;9.14;100.00;99404.00;6176122;28;20046;-78
2023/11/14 02:16:45;;;;;;;12.50;8.10;;;;;;;9.11;100.00;99397.25;6192905;28;20053;-77
2023/11/14 02:19:46;;;;;;;15.27;8.48;;;;;;;9.05;100.00;99387.22;6191800;28;20054;-78
2023/11/14 02:22:47;;;;;;;16.20;9.32;;;;;;;9.13;100.00;99390.16;6190887;28;20077;-77
2023/11/14 02:25:48;;;;;;;10.95;7.22;;;;;;;9.14;100.00;99393.59;6194095;28;20054;-77
2023/11/14 02:28:58;;;;;;;13.63;8.43;;;;;;;9.20;100.00;99401.00;6186692;28;20054;-78
2023/11/14 02:32:00;;;;;;;16.25;7.93;;;;;;;9.31;100.00;99397.69;6191010;28;20539;-77
2023/11/14 02:35:01;;;;;;;17.00;9.23;;;;;;;9.30;100.00;99420.28;6178881;28;20054;-73
2023/11/14 02:38:02;;;;;;;13.00;7.80;;;;;;;9.13;100.00;99404.94;6194833;28;20054;-74
2023/11/14 02:41:03;;;;;;;18.48;9.52;;;;;;;9.28;100.00;99370.09;6193015;28;20058;-78
2023/11/14 02:44:05;;;;;;;19.05;9.85;;;;;;;9.32;100.00;99366.34;6194754;28;20092;-77
2023/11/14 02:47:08;;;;;;;14.73;8.50;;;;;;;9.31;100.00;99375.09;6193391;28;20096;-77
2023/11/14 02:50:40;;;;;;;17.05;9.20;;;;;;;9.37;100.00;99366.88;6194628;28;20493;-78
2023/11/14 02:53:41;;;;;;;17.33;9.07;;;;;;;9.25;100.00;99363.31;6192761;28;20050;-78
2023/11/14 02:56:42;;;;;;;17.85;9.40;;;;;;;9.26;100.00;99361.53;6195196;28;20053;-78
2023/11/14 02:59:44;;;;;;;14.07;9.00;;;;;;;9.37;100.00;99353.88;6198874;28;20050;-74
2023/11/14 03:02:45;;;;;;;22.73;8.95;;;;;;;9.22;100.00;99352.28;6198173;28;20528;-76
2023/11/14 03:05:46;;;;;;;12.75;8.52;;;;;;;9.38;100.00;99347.72;6198650;28;20420;-77
2023/11/14 03:08:49;;;;;;;12.68;8.40;;;;;;;9.51;100.00;99336.47;6198621;28;20054;-77
2023/11/14 03:11:51;;;;;;;21.73;9.90;;;;;;;9.51;100.00;99339.06;6198792;28;20082;-77
2023/11/14 03:14:54;;;;;;;24.70;9.05;;;;;;;9.46;100.00;99331.56;6196681;28;20129;-77
2023/11/14 03:17:56;;;;;;;16.52;10.32;;;;;;;9.52;100.00;99341.56;6197409;28;20057;-77
2023/11/14 03:20:59;;;;;;;20.87;9.73;;;;;;;9.38;100.00;99347.72;6198358;28;20066;-77
2023/11/14 03:24:00;;;;;;;16.67;9.30;;;;;;;9.44;100.00;99343.88;6198292;28;20759;-78
2023/11/14 03:27:01;;;;;;;17.33;9.27;;;;;;;9.45;100.00;99333.34;6196983;28;20054;-74
2023/11/14 03:30:03;;;;;;;11.35;6.93;;;;;;;9.45;100.00;99343.78;6198276;28;20133;-74
2023/11/14 03:33:04;;;;;;;16.05;8.02;;;;;;;9.48;100.00;99340.94;6196944;28;20105;-77
2023/11/14 03:36:07;;;;;;;19.67;9.02;;;;;;;9.50;100.00;99340.03;6197977;28;20058;-74
2023/11/14 03:39:08;;;;;;;14.82;9.60;;;;;;;9.53;100.00;99347.63;6196809;28;20157;-74
2023/11/14 03:42:11;;;;;;;15.82;8.85;;;;;;;9.58;100.00;99335.13;6197947;28;20098;-74
2023/11/14 03:45:13;;;;;;;14.98;8.20;;;;;;;9.44;100.00;99346.47;6196489;28;20060;-74
2023/11/14 03:48:14;;;;;;;15.02;8.68;;;;;;;9.46;100.00;99334.19;6168418;28;20510;-74
2023/11/14 03:51:19;;;;;;;13.13;8.57;;;;;;;9.49;100.00;99331.34;6166456;28;20053;-74
2023/11/14 03:54:19;;;;;;;18.52;9.30;;;;;;;9.47;100.00;99328.03;6168516;28;20174;-78
2023/11/14 03:57:21;;;;;;;9.45;6.75;;;;;;;9.47;100.00;99315.00;6173324;28;20149;-78
2023/11/14 04:00:22;;;;;;;11.23;7.18;;;;;;;9.55;100.00;99338.75;6169064;28;20043;-78
2023/11/14 04:03:23;;;;;;;13.63;8.55;;;;;;;9.53;100.00;99322.41;6227497;28;20077;-78
2023/11/14 04:06:24;;;;;;;13.68;7.82;;;;;;;9.49;100.00;99326.16;6195609;28;20553;-77
2023/11/14 04:09:25;;;;;;;13.63;7.97;;;;;;;9.48;100.00;99333.13;6192566;28;20047;-78
2023/11/14 04:12:28;;;;;;;15.75;9.02;;;;;;;9.48;100.00;99317.50;6186313;28;20051;-77
2023/11/14 04:15:31;;;;;;;15.65;9.20;;;;;;;9.57;100.00;99325.63;6186585;28;20050;-77
2023/11/14 04:18:31;;;;;;;;;;;;;;;9.57;100.00;99317.81;6196622;28;20052;-77
2023/11/14 04:21:32;;;;;;;16.42;8.68;;;;;;;9.57;100.00;99331.66;6192581;28;19922;-77
2023/11/14 04:24:33;;;;;;;14.77;8.52;;;;;;;9.39;100.00;99332.91;6185781;28;20112;-77
2023/11/14 04:27:37;;;;;;;11.93;7.13;;;;;;;9.42;100.00;99325.75;6192388;28;20559;-77
2023/11/14 04:30:37;;;;;;;12.77;8.40;;;;;;;9.44;100.00;99336.06;6194473;28;20409;-74
2023/11/14 04:33:38;;;;;;;14.40;8.20;;;;;;;9.53;100.00;99353.66;6184495;28;20049;-78
2023/11/14 04:36:42;;;;;;;16.85;8.48;;;;;;;9.50;100.00;99346.06;6182128;28;20050;-77
2023/11/14 04:39:44;;;;;;;17.33;8.18;;;;;;;9.67;100.00;99347.50;6192333;28;20105;-77
2023/11/14 04:42:45;;;;;;;10.50;6.80;;;;;;;9.52;100.00;99372.81;6180307;28;20297;-75
2023/11/14 04:45:47;;;;;;;18.48;8.77;;;;;;;9.56;100.00;99347.41;6220269;28;20482;-74
2023/11/14 04:48:48;;;;;;;12.77;7.72;;;;;;;9.56;100.00;99337.81;6195609;28;20061;-75
2023/11/14 04:51:48;;;;;;;12.73;7.95;;;;;;;9.71;100.00;99333.34;6194771;28;20043;-73
2023/11/14 04:54:49;;;;;;;13.50;7.85;;;;;;;9.77;100.00;99343.34;6180680;28;20065;-75
2023/11/14 04:57:50;;;;;;;16.05;7.80;;;;;;;9.79;100.00;99356.25;6194259;28;20524;-77
2023/11/14 05:00:51;;;;;;;11.70;6.55;;;;;;;9.73;100.00;99359.28;6190672;28;20271;-74
2023/11/14 05:03:52;;;;;;;17.33;7.05;;;;;;;9.76;100.00;99357.31;6195065;28;20050;-77
2023/11/14 05:06:53;;;;;;;10.48;6.88;;;;;;;9.86;100.00;99354.88;6194718;28;20257;-74
2023/11/14 05:09:54;;;;;;;13.98;7.00;;;;;;;9.79;100.00;99351.06;6189423;28;20065;-77
2023/11/14 05:12:56;;;;;;;14.23;7.10;;;;;;;9.74;100.00;99340.94;6188519;28;20054;-77
2023/11/14 05:15:58;;;;;;;9.27;6.78;;;;;;;9.74;100.00;99337.50;6195453;28;20133;-78
2023/11/14 05:19:01;;;;;;;13.52;7.65;;;;;;;9.75;100.00;99323.53;6194806;28;20110;-77
2023/11/14 05:22:02;;;;;;;13.77;7.57;;;;;;;9.81;100.00;99323.94;6193529;28;20057;-77
2023/11/14 05:25:03;;;;;;;11.77;7.32;;;;;;;9.87;100.00;99333.13;6191867;28;20061;-77
2023/11/14 05:28:04;;;;;;;17.85;7.55;;;;;;;9.94;100.00;99318.69;6194241;28;20046;-74
2023/11/14 05:31:05;;;;;;;14.65;7.78;;;;;;;9.84;100.00;99328.97;6194662;28;20052;-74
2023/11/14 05:34:07;;;;;;;11.13;6.95;;;;;;;9.76;100.00;99338.22;6195528;28;20054;-77
2023/11/14 05:37:08;;;;;;;12.93;7.90;;;;;;;9.87;100.00;99341.75;6174786;28;20057;-77
2023/11/14 05:40:09;;;;;;;17.55;8.35;;;;;;;9.81;100.00;99357.00;6169418;28;20058;-75
2023/11/14 05:43:13;;;;;;;11.80;7.22;;;;;;;9.88;100.00;99371.25;6186954;28;20170;-75
2023/11/14 05:46:14;;;;;;;15.43;8.20;;;;;;;9.82;100.00;99375.13;6194164;28;20058;-74
2023/11/14 05:49:14;;;;;;;13.88;7.40;;;;;;;9.86;100.00;99391.38;6188538;28;20141;-74
2023/11/14 05:52:15;;;;;;;13.10;6.88;;;;;;;9.79;100.00;99382.31;6188839;28;20612;-74
2023/11/14 05:55:16;;;;;;;15.80;6.90;;;;;;;9.98;100.00;99361.03;6192483;28;20413;-78
2023/11/14 05:58:19;;;;;;;13.55;8.15;;;;;;;9.94;100.00;99355.19;6193859;28;20102;-77
2023/11/14 06:01:20;;;;;;;13.38;7.88;;;;;;;9.91;100.00;99360.63;6194926;28;20074;-78
2023/11/14 06:04:24;;;;;;;13.70;7.38;;;;;;;10.05;100.00;99354.47;6193952;28;20050;-78
2023/11/14 06:07:25;;;;;;;21.40;9.88;;;;;;;10.08;100.00;99362.06;6194829;28;20058;-78
2023/11/14 06:10:25;;;;;;;13.65;8.73;;;;;;;10.05;100.00;99359.69;6195444;28;20404;-77
2023/11/14 06:13:26;;;;;;;18.85;8.75;;;;;;;10.12;100.00;99358.28;6194870;28;20104;-74
2023/11/14 06:16:30;;;;;;;19.48;10.35;;;;;;;10.14;100.00;99374.66;6194872;28;20529;-77
2023/11/14 06:19:36;;;;;;;12.23;8.75;;;;;;;10.05;100.00;99377.91;6193962;28;20500;-75
2023/11/14 06:22:37;;;;;;;12.63;8.75;;;;;;;10.03;100.00;99400.66;6193437;28;20046;-74
2023/11/14 06:25:38;;;;;;;15.50;8.30;;;;;;;10.12;100.00;99401.78;6194772;28;20108;-77
2023/11/14 06:28:39;;;;;;;11.30;7.72;;;;;;;10.08;100.00;99414.19;6194573;28;20050;-74
2023/11/14 06:31:43;;;;;;;16.05;7.22;;;;;;;10.07;100.00;99415.97;6195162;28;20394;-74
2023/11/14 06:34:46;;;;;;;15.27;8.82;;;;;;;10.21;100.00;99408.94;6199343;28;20105;-77
2023/11/14 06:37:47;;;;;;;10.95;6.03;;;;;;;10.07;100.00;99389.06;6198339;28;20105;-77
2023/11/14 06:40:48;;;;;;;15.27;7.80;;;;;;;10.23;100.00;99375.78;6197268;28;20050;-74
2023/11/14 06:43:49;;;;;;;16.60;7.15;;;;;;;10.06;100.00;99358.72;6198125;28;20485;-74
2023/11/14 06:46:50;;;;;;;13.57;7.63;;;;;;;10.15;100.00;99344.19;6197731;28;20061;-74
2023/11/14 06:49:51;;;;;;;15.60;7.78;;;;;;;10.16;100.00;99331.06;6197839;28;20508;-74
2023/11/14 06:52:52;;;;;;;13.00;6.97;;;;;;;10.11;100.00;99329.72;6199220;28;20260;-74
2023/11/14 06:55:53;;;;;;;14.48;7.25;;;;;;;10.18;100.00;99362.25;6198806;28;20116;-78
2023/11/14 06:58:54;;;;;;;10.55;6.57;;;;;;;10.35;100.00;99393.19;6198761;28;20046;-74
2023/11/14 07:01:55;;;;;;;13.13;8.05;;;;;;;10.39;100.00;99399.88;6198683;28;20536;-77
2023/11/14 07:04:58;;;;;;;19.20;8.00;;;;;;;10.44;100.00;99382.13;6198748;28;20058;-77
2023/11/14 07:08:00;;;;;;;14.15;8.38;;;;;;;10.57;100.00;99360.38;6198789;28;20062;-74
2023/11/14 07:11:01;;;;;;;14.75;7.15;;;;;;;10.47;100.00;99381.91;6198847;28;20050;-74
2023/11/14 07:14:04;;;;;;;15.63;8.63;;;;;;;10.62;100.00;99382.56;6197225;28;20082;-78
2023/11/14 07:17:05;;;;;;;30.83;16.85;;;;;;;10.76;100.00;99380.75;6197342;28;20064;-78
2023/11/14 07:20:10;;;;;;;16.13;10.32;;;;;;;10.62;100.00;99358.25;6197187;28;20055;-74
2023/11/14 07:23:11;;;;;;;15.23;8.88;;;;;;;10.56;100.00;99362.13;6197326;28;20046;-74
2023/11/14 07:26:13;;;;;;;9.48;7.13;;;;;;;10.53;100.00;99369.38;6198474;28;20061;-73
2023/11/14 07:29:19;;;;;;;21.30;11.80;;;;;;;10.56;100.00;99364.75;6196920;28;20441;-78
2023/11/14 07:32:22;;;;;;;22.25;11.38;;;;;;;10.75;100.00;99382.53;6197043;28;20495;-78
2023/11/14 07:35:23;;;;;;;15.32;8.43;;;;;;;10.95;100.00;99359.38;6196748;28;20524;-75
2023/11/14 07:38:24;;;;;;;11.68;7.88;;;;;;;10.88;100.00;99365.03;6198378;28;20109;-74
2023/11/14 07:41:25;;;;;;;13.70;8.07;;;;;;;10.88;100.00;99365.03;6196537;28;20078;-74
2023/11/14 07:44:26;;;;;;;12.93;7.78;;;;;;;10.91;100.00;99357.94;6197735;28;20061;-74
2023/11/14 07:47:29;;;;;;;14.65;7.40;;;;;;;10.86;100.00;99346.03;6196406;28;20058;-74
2023/11/14 07:50:30;;;;;;;12.65;6.85;;;;;;;11.00;100.00;99339.81;6197885;28;20042;-74
2023/11/14 07:53:31;;;;;;;10.45;6.35;;;;;;;10.96;100.00;99335.75;6197603;28;20053;-74
2023/11/14 07:56:34;;;;;;;16.52;7.78;;;;;;;10.87;100.00;99342.50;6196241;28;20074;-74
2023/11/14 07:59:35;;;;;;;13.85;7.72;;;;;;;10.99;100.00;99343.34;6196369;28;20057;-75
2023/11/14 08:02:40;;;;;;;14.77;6.97;;;;;;;11.10;100.00;99337.34;6196061;28;20121;-75
2023/11/14 08:05:41;;;;;;;15.15;7.50;;;;;;;11.06;100.00;99326.31;6197587;28;20050;-74
2023/11/14 08:08:44;;;;;;;13.77;7.72;;;;;;;11.28;100.00;99322.94;6197127;28;20556;-78
2023/11/14 08:11:47;;;;;;;13.50;7.50;;;;;;;11.44;100.00;99330.41;6196381;28;20121;-75
2023/11/14 08:14:49;;;;;;;21.30;12.25;;;;;;;11.70;100.00;99338.88;6197072;28;20054;-74
2023/11/14 08:17:53;;;;;;;13.52;8.13;;;;;;;11.58;100.00;99321.53;6197323;28;20054;-75
2023/11/14 08:20:56;;;;;;;21.52;9.70;;;;;;;11.61;100.00;99336.13;6195814;28;20144;-74
2023/11/14 08:23:59;;;;;;;15.07;7.07;;;;;;;11.70;100.00;99340.66;6197161;28;20137;-74
2023/11/14 08:27:00;;;;;;;14.23;7.72;;;;;;;11.81;100.00;99347.66;6195454;28;20061;-74
2023/11/14 08:30:09;;;;;;;13.18;6.90;;;;;;;11.72;100.00;99364.06;6195892;28;20050;-74
2023/11/14 08:33:10;;;;;;;12.98;6.60;;;;;;;11.73;100.00;99371.78;6196741;28;20080;-77
2023/11/14 08:36:11;;;;;;;14.15;6.40;;;;;;;11.70;100.00;99367.63;6197107;28;20050;-78
2023/11/14 08:39:15;;;;;;;11.25;6.00;;;;;;;11.89;100.00;99354.00;6195219;28;20073;-78
2023/11/14 08:42:18;;;;;;;9.50;5.47;;;;;;;11.80;100.00;99346.03;6196411;28;20104;-73
2023/11/14 08:45:19;;;;;;;22.70;8.82;;;;;;;11.83;100.00;99338.75;6194735;28;20054;-74
2023/11/14 08:48:21;;;;;;;18.00;8.00;;;;;;;11.85;100.00;99330.78;6194430;28;20058;-74
2023/11/14 08:51:22;;;;;;;24.48;8.77;;;;;;;11.92;100.00;99339.84;6195086;28;20179;-75
2023/11/14 08:54:27;;;;;;;29.20;9.70;;;;;;;12.06;100.00;99320.47;6195482;28;20061;-74
2023/11/14 08:57:30;;;;;;;19.33;9.20;;;;;;;12.33;100.00;99342.78;6194842;28;20065;-74
2023/11/14 09:00:32;;;;;;;21.85;8.60;;;;;;;12.48;100.00;99346.81;6195725;28;20042;-73
2023/11/14 09:03:33;;;;;;;12.30;7.10;;;;;;;12.76;100.00;99358.47;6194921;28;20046;-74
2023/11/14 09:06:34;;;;;;;23.52;6.22;;;;;;;13.18;100.00;99353.31;6194827;28;20050;-74
2023/11/14 09:09:34;;;;;;;10.73;6.18;;;;;;;13.70;100.00;99332.38;6194572;28;20042;-74
2023/11/14 09:12:35;;;;;;;14.82;6.45;;;;;;;13.52;100.00;99344.44;6195831;28;20053;-75
2023/11/14 09:15:39;;;;;;;18.80;8.40;;;;;;;13.39;100.00;99348.09;6194403;28;20069;-77
2023/11/14 09:18:40;;;;;;;9.55;4.80;;;;;;;13.23;100.00;99372.06;6194391;28;20536;-77
2023/11/14 09:21:44;;;;;;;9.98;4.68;;;;;;;13.05;100.00;99381.44;6194254;28;20126;-77
2023/11/14 09:24:48;;;;;;;14.40;4.72;;;;;;;12.90;100.00;99392.22;6195575;28;20141;-77
2023/11/14 09:27:49;;;;;;;9.45;4.55;;;;;;;12.81;100.00;99390.34;6193880;28;20490;-77
2023/11/14 09:30:52;;;;;;;9.65;4.95;;;;;;;13.01;100.00;99393.13;6194256;28;20049;-77
2023/11/14 09:33:53;;;;;;;10.63;4.05;;;;;;;13.01;100.00;99388.75;6193844;28;20047;-77
2023/11/14 09:36:54;;;;;;;7.83;4.07;;;;;;;13.00;100.00;99388.88;6195273;28;20457;-73
2023/11/14 09:39:55;;;;;;;7.55;4.35;;;;;;;13.12;100.00;99395.72;6193772;28;20105;-74
2023/11/14 09:42:56;;;;;;;9.75;4.65;;;;;;;13.11;100.00;99388.81;6194070;28;20050;-74
2023/11/14 09:45:58;;;;;;;7.75;4.05;;;;;;;13.06;100.00;99409.31;6194004;28;20047;-74
2023/11/14 09:49:00;;;;;;;;;;;;;;;12.86;100.00;99416.97;6194219;28;20053;-74
2023/11/14 09:52:03;;;;;;;9.20;4.18;;;;;;;13.00;100.00;99430.75;6194080;28;19922;-77
2023/11/14 09:55:05;;;;;;;8.57;3.80;;;;;;;12.81;100.00;99411.31;6195101;28;20054;-77
2023/11/14 09:58:09;;;;;;;8.70;4.38;;;;;;;12.93;100.00;99422.56;6193898;28;20055;-73
2023/11/14 10:01:11;;;;;;;8.02;3.78;;;;;;;12.96;100.00;99426.72;6193635;28;20505;-73
2023/11/14 10:04:12;;;;;;;7.47;3.97;;;;;;;12.80;100.00;99450.69;6193968;28;20046;-77
2023/11/14 10:07:17;;;;;;;7.28;4.00;;;;;;;12.87;100.00;99426.53;6196769;28;20053;-77
2023/11/14 10:10:19;;;;;;;9.85;3.53;;;;;;;12.98;100.00;99427.44;6200349;28;20057;-77
2023/11/14 10:13:20;;;;;;;10.95;3.60;;;;;;;12.95;100.00;99439.00;6198656;28;20054;-77
2023/11/14 10:16:21;;;;;;;5.32;3.38;;;;;;;13.00;100.00;99418.50;6198878;28;20049;-74
2023/11/14 10:19:25;;;;;;;5.13;3.27;;;;;;;12.91;100.00;99419.25;6198651;28;20050;-73
2023/11/14 10:22:27;;;;;;;6.00;3.33;;;;;;;12.82;100.00;99412.13;6198810;28;20129;-73
2023/11/14 10:25:31;;;;;;;9.13;4.15;;;;;;;13.05;100.00;99420.72;6199955;28;20073;-77
2023/11/14 10:28:32;;;;;;;10.45;5.10;;;;;;;12.98;100.00;99415.16;6198278;28;20058;-73
2023/11/14 10:31:34;;;;;;;7.78;3.85;;;;;;;12.95;100.00;99411.97;6199690;28;20042;-73
2023/11/14 10:34:35;;;;;;;9.73;4.63;;;;;;;13.08;100.00;99430.97;6198245;28;20050;-77
2023/11/14 10:37:36;;;;;;;7.28;4.00;;;;;;;13.17;100.00;99419.72;6198534;28;20504;-73
2023/11/14 10:40:47;;;;;;;9.07;4.10;;;;;;;13.21;100.00;99408.03;6199243;28;20073;-77
2023/11/14 10:43:48;;;;;;;5.47;3.50;;;;;;;13.16;100.00;99409.38;6198258;28;20058;-74
2023/11/14 10:46:53;;;;;;;4.35;3.20;;;;;;;13.22;100.00;99408.88;6197757;28;20552;-74
2023/11/14 10:49:54;;;;;;;8.02;4.10;;;;;;;13.08;100.00;99402.16;6197896;28;20133;-77
2023/11/14 10:53:04;;;;;;;8.55;3.50;;;;;;;13.13;100.00;99443.69;6198048;28;20409;-78
2023/11/14 10:56:06;;;;;;;9.35;4.20;;;;;;;13.18;100.00;99433.66;6199235;28;20054;-75
2023/11/14 10:59:13;;;;;;;7.10;3.55;;;;;;;13.10;100.00;99435.13;6198746;28;20398;-75
2023/11/14 11:02:15;;;;;;;5.85;3.78;;;;;;;13.13;100.00;99422.72;6199057;28;20051;-79
2023/11/14 11:05:20;;;;;;;7.43;3.88;;;;;;;13.19;100.00;99409.13;6197736;28;20148;-78
2023/11/14 11:08:21;;;;;;;13.70;4.85;;;;;;;13.14;100.00;99424.38;6197638;28;20053;-78
2023/11/14 11:11:28;;;;;;;6.18;3.95;;;;;;;13.13;100.00;99427.97;6198554;28;20493;-74
2023/11/14 11:14:31;;;;;;;5.85;3.97;;;;;;;12.85;100.00;99411.91;6198593;28;20059;-75
2023/11/14 11:17:47;;;;;;;16.50;5.38;;;;;;;12.95;100.00;99404.09;6196950;28;20367;-74
2023/11/14 11:20:48;;;;;;;12.32;6.28;;;;;;;12.85;100.00;99373.44;6198272;28;20060;-75
2023/11/14 11:24:09;;;;;;;13.80;6.15;;;;;;;12.95;100.00;99393.63;6198380;28;20120;-74
2023/11/14 11:27:22;;;;;;;9.00;5.18;;;;;;;13.07;100.00;99396.09;6197125;28;20422;-78
2023/11/14 11:30:24;;;;;;;12.23;6.85;;;;;;;12.94;100.00;99378.88;6196957;28;20046;-79
2023/11/14 11:33:36;;;;;;;9.73;6.60;;;;;;;12.69;100.00;99371.22;6197153;28;20454;-79
2023/11/14 11:36:37;;;;;;;14.70;6.63;;;;;;;12.94;100.00;99350.91;6197200;28;20406;-79
2023/11/14 11:40:05;;;;;;;12.20;6.20;;;;;;;12.97;100.00;99389.97;6197197;28;20046;-79
2023/11/14 11:43:09;;;;;;;7.50;4.00;;;;;;;13.10;100.00;99398.44;6198038;28;20047;-79
2023/11/14 11:46:31;;;;;;;9.07;5.03;;;;;;;13.21;100.00;99394.13;6197882;28;20052;-80
2023/11/14 11:49:32;;;;;;;11.07;5.90;;;;;;;13.19;100.00;99391.63;6196451;28;20130;-79
2023/11/14 11:52:38;;;;;;;11.70;5.53;;;;;;;13.32;100.00;99372.31;6196892;28;20508;-79
2023/11/14 11:55:39;;;;;;;9.10;5.18;;;;;;;13.58;100.00;99378.81;6198109;28;20057;-79
2023/11/14 11:58:47;;;;;;;8.63;4.57;;;;;;;13.63;100.00;99375.78;6196711;28;20074;-79
2023/11/14 12:01:48;;;;;;;7.75;5.07;;;;;;;13.73;100.00;99386.34;6196175;28;20054;-75
2023/11/14 12:04:54;;;;;;;10.10;4.22;;;;;;;13.75;100.00;99392.28;6196447;28;20480;-75
2023/11/14 12:07:56;;;;;;;6.65;4.20;;;;;;;13.61;100.00;99389.06;6197431;28;20054;-75
2023/11/14 12:10:58;;;;;;;10.00;3.80;;;;;;;13.42;100.00;99394.97;6197313;28;20708;-79
2023/11/14 12:14:04;;;;;;;10.75;3.55;;;;;;;13.37;100.00;99391.09;6197235;28;20136;-79
2023/11/14 12:17:06;;;;;;;7.15;3.45;;;;;;;13.52;100.00;99389.81;6197417;28;20108;-75
2023/11/14 12:20:09;;;;;;;6.90;3.60;;;;;;;13.61;100.00;99396.06;6195776;28;20603;-78
2023/11/14 12:23:11;;;;;;;5.90;3.00;;;;;;;13.64;100.00;99399.28;6197495;28;20077;-75
2023/11/14 12:26:12;;;;;;;6.95;3.75;;;;;;;13.57;100.00;99400.75;6197220;28;20086;-75
2023/11/14 12:29:16;;;;;;;13.87;3.70;;;;;;;13.91;100.00;99398.72;6195117;28;20093;-75
2023/11/14 12:32:17;;;;;;;5.70;3.28;;;;;;;14.29;100.00;99386.72;6196725;28;20050;-79
2023/11/14 12:35:18;;;;;;;8.50;3.70;;;;;;;14.24;100.00;99391.53;6195422;28;20057;-79
2023/11/14 12:38:29;;;;;;;8.25;4.13;;;;;;;14.28;100.00;99390.28;6195533;28;20490;-79
2023/11/14 12:41:30;;;;;;;12.10;4.28;;;;;;;14.48;100.00;99374.63;6195400;28;20046;-75
2023/11/14 12:44:35;;;;;;;9.80;3.95;;;;;;;14.30;100.00;99375.25;6196666;28;20133;-75
2023/11/14 12:47:41;;;;;;;9.40;4.57;;;;;;;14.60;100.00;99372.72;6196343;28;20054;-75
2023/11/14 12:50:43;;;;;;;6.40;3.38;;;;;;;14.41;100.00;99370.84;6196166;28;20057;-75
2023/11/14 12:53:43;;;;;;;13.65;3.58;;;;;;;14.43;100.00;99375.03;6195129;28;20417;-75
2023/11/14 12:56:44;;;;;;;7.20;3.47;;;;;;;14.60;100.00;99377.97;6195254;28;20054;-75
2023/11/14 12:59:45;;;;;;;3.97;2.88;;;;;;;14.46;100.00;99395.75;6194923;28;20054;-75
2023/11/14 13:02:47;;;;;;;6.20;2.90;;;;;;;14.23;100.00;99392.50;6194635;28;20046;-78
2023/11/14 13:05:50;;;;;;;6.53;3.30;;;;;;;14.30;100.00;99390.16;6196176;28;20440;-75
2023/11/14 13:08:51;;;;;;;9.15;4.45;;;;;;;14.20;100.00;99368.31;6195888;28;20098;-75
2023/11/14 13:11:51;;;;;;;12.27;6.82;;;;;;;13.98;100.00;99356.22;6194755;28;20457;-75
2023/11/14 13:14:52;;;;;;;12.90;7.60;;;;;;;13.90;100.00;99351.66;6194576;28;20055;-74
2023/11/14 13:17:53;;;;;;;8.70;5.18;;;;;;;13.86;100.00;99343.22;6196019;28;20093;-74
2023/11/14 13:20:56;;;;;;;9.98;3.65;;;;;;;13.91;100.00;99343.63;6195586;28;20062;-75
2023/11/14 13:23:57;;;;;;;6.00;3.53;;;;;;;13.70;100.00;99359.44;6195705;28;20501;-74
2023/11/14 13:27:01;;;;;;;7.15;3.10;;;;;;;13.58;100.00;99365.72;6194429;28;20061;-75
2023/11/14 13:30:03;;;;;;;5.55;3.20;;;;;;;13.65;100.00;99372.09;6194591;28;20101;-75
2023/11/14 13:33:06;;;;;;;7.10;3.63;;;;;;;13.52;100.00;99384.56;6195660;28;20840;-75
2023/11/14 13:36:12;;;;;;;5.57;3.08;;;;;;;13.58;100.00;99376.19;6195532;28;20145;-74
2023/11/14 13:39:13;;;;;;;6.10;3.47;;;;;;;13.38;100.00;99385.72;6195582;28;20485;-74
2023/11/14 13:42:14;;;;;;;7.97;3.17;;;;;;;13.24;100.00;99386.00;6194929;28;20087;-75
2023/11/14 13:45:17;;;;;;;4.47;3.08;;;;;;;13.31;100.00;99392.44;6195794;28;20051;-74
2023/11/14 13:48:20;;;;;;;7.90;4.60;;;;;;;13.40;100.00;99388.22;6193806;28;20084;-75
2023/11/14 13:51:22;;;;;;;6.07;3.20;;;;;;;13.33;100.00;99382.66;6195161;28;20493;-78
2023/11/14 13:54:25;;;;;;;7.88;3.15;;;;;;;13.38;100.00;99392.75;6193965;28;20073;-74
2023/11/14 13:57:29;;;;;;;5.32;3.10;;;;;;;13.40;100.00;99404.75;6194168;28;20493;-74
2023/11/14 14:00:32;;;;;;;5.25;2.72;;;;;;;13.35;100.00;99406.94;6195002;28;20050;-74
2023/11/14 14:03:33;;;;;;;5.45;3.17;;;;;;;13.16;100.00;99415.47;6193939;28;20588;-75
2023/11/14 14:06:34;;;;;;;13.02;4.15;;;;;;;13.23;100.00;99408.75;6195120;28;20050;-78